createdAt,value
2022-08-22T00:00:13.921Z,99.90
2022-08-22T00:02:48.935Z,99.90
2022-08-22T00:03:04.985Z,95.30
2022-08-22T00:03:15.332Z,99.90
2022-08-22T00:06:30.675Z,99.90
2022-08-22T00:09:14.800Z,99.90
2022-08-22T00:12:20.640Z,99.90
2022-08-22T00:15:07.995Z,99.90
2022-08-22T00:18:05.608Z,99.90
2022-08-22T00:20:47.955Z,99.90
2022-08-22T00:23:39.340Z,99.90
2022-08-22T00:26:30.422Z,99.90
2022-08-22T00:29:02.336Z,99.90
2022-08-22T00:31:35.866Z,99.90
2022-08-22T00:34:17.942Z,99.90
2022-08-22T00:37:06.735Z,99.90
2022-08-22T00:39:46.592Z,99.90
2022-08-22T00:42:41.340Z,99.90
2022-08-22T00:46:02.695Z,99.90
2022-08-22T00:48:41.555Z,99.90
2022-08-22T00:51:24.979Z,99.90
2022-08-22T00:54:17.602Z,99.90
2022-08-22T00:57:35.854Z,99.90
2022-08-22T01:00:16.596Z,99.90
2022-08-22T01:03:14.039Z,99.90
2022-08-22T01:05:55.501Z,99.90
2022-08-22T01:09:01.593Z,99.90
2022-08-22T01:11:43.266Z,99.90
2022-08-22T01:14:44.070Z,99.90
2022-08-22T01:17:42.004Z,99.90
2022-08-22T01:20:49.712Z,99.90
2022-08-22T01:23:56.872Z,99.90
2022-08-22T01:27:07.186Z,99.90
2022-08-22T01:30:02.722Z,99.90
2022-08-22T01:33:26.169Z,99.90
2022-08-22T01:36:12.340Z,99.90
2022-08-22T01:39:11.870Z,99.90
2022-08-22T01:42:30.512Z,99.90
2022-08-22T01:45:03.873Z,99.90
2022-08-22T01:48:06.329Z,99.90
2022-08-22T01:50:39.713Z,99.90
2022-08-22T01:53:25.563Z,99.90
2022-08-22T01:56:13.088Z,99.90
2022-08-22T01:58:56.507Z,99.90
2022-08-22T02:01:44.598Z,99.90
2022-08-22T02:05:02.915Z,99.90
2022-08-22T02:07:57.293Z,99.90
2022-08-22T02:11:06.119Z,99.90
2022-08-22T02:14:01.442Z,99.90
2022-08-22T02:16:38.374Z,99.90
2022-08-22T02:19:14.502Z,99.90
2022-08-22T02:22:18.790Z,99.90
2022-08-22T02:24:50.886Z,99.90
2022-08-22T02:28:10.986Z,99.90
2022-08-22T02:31:06.317Z,99.90
2022-08-22T02:33:57.010Z,99.90
2022-08-22T02:36:46.983Z,99.90
2022-08-22T02:39:34.187Z,99.90
2022-08-22T02:42:14.576Z,99.90
2022-08-22T02:45:09.721Z,99.90
2022-08-22T02:47:52.842Z,99.90
2022-08-22T02:50:34.882Z,99.90
2022-08-22T02:53:32.523Z,99.90
2022-08-22T02:56:09.651Z,99.90
2022-08-22T02:59:13.679Z,99.90
2022-08-22T03:01:45.947Z,99.90
2022-08-22T03:04:31.410Z,99.90
2022-08-22T03:07:20.290Z,99.90
2022-08-22T03:10:30.182Z,99.90
2022-08-22T03:13:11.896Z,99.90
2022-08-22T03:16:29.452Z,99.90
2022-08-22T03:19:06.163Z,99.90
2022-08-22T03:21:46.130Z,99.90
2022-08-22T03:24:15.127Z,99.90
2022-08-22T03:27:46.227Z,99.90
2022-08-22T03:30:21.020Z,99.90
2022-08-22T03:33:14.426Z,99.90
2022-08-22T03:35:47.783Z,99.90
2022-08-22T03:38:23.569Z,99.90
2022-08-22T03:41:23.443Z,99.90
2022-08-22T03:44:12.862Z,99.90
2022-08-22T03:47:16.316Z,99.90
2022-08-22T03:49:49.318Z,99.90
2022-08-22T03:53:15.522Z,99.90
2022-08-22T03:56:12.246Z,99.90
2022-08-22T03:59:17.811Z,99.90
2022-08-22T04:02:33.439Z,99.90
2022-08-22T04:05:20.006Z,99.90
2022-08-22T04:07:59.555Z,99.90
2022-08-22T04:11:13.524Z,99.90
2022-08-22T04:14:26.137Z,99.90
2022-08-22T04:17:31.603Z,99.90
2022-08-22T04:20:13.372Z,99.90
2022-08-22T04:23:17.796Z,99.90
2022-08-22T04:25:54.118Z,99.90
2022-08-22T04:28:45.647Z,99.90
2022-08-22T04:31:23.750Z,99.90
2022-08-22T04:34:33.701Z,99.90
2022-08-22T04:37:20.884Z,99.90
2022-08-22T04:40:10.136Z,99.90
2022-08-22T04:43:01.771Z,99.90
2022-08-22T04:46:17.929Z,99.90
2022-08-22T04:49:01.793Z,99.90
2022-08-22T04:52:09.288Z,99.90
2022-08-22T04:54:55.823Z,99.90
2022-08-22T04:57:57.072Z,99.90
2022-08-22T05:00:24.453Z,99.90
2022-08-22T05:02:58.026Z,99.90
2022-08-22T05:05:38.922Z,99.90
2022-08-22T05:08:12.426Z,99.90
2022-08-22T05:10:47.449Z,99.90
2022-08-22T05:13:29.190Z,99.90
2022-08-22T05:16:03.462Z,99.90
2022-08-22T05:18:40.914Z,99.90
2022-08-22T05:21:13.870Z,99.90
2022-08-22T05:24:03.463Z,99.90
2022-08-22T05:26:39.707Z,99.90
2022-08-22T05:29:10.138Z,99.90
2022-08-22T05:31:50.224Z,99.90
2022-08-22T05:34:26.315Z,99.90
2022-08-22T05:36:58.505Z,99.90
2022-08-22T05:39:28.013Z,99.90
2022-08-22T05:42:00.364Z,99.90
2022-08-22T05:44:38.194Z,99.90
2022-08-22T05:47:19.290Z,99.90
2022-08-22T05:50:04.875Z,99.90
2022-08-22T05:52:59.354Z,99.90
2022-08-22T05:55:37.562Z,99.90
2022-08-22T05:58:14.009Z,99.90
2022-08-22T06:00:46.870Z,99.90
2022-08-22T06:03:26.776Z,99.90
2022-08-22T06:05:59.219Z,99.90
2022-08-22T06:08:40.280Z,99.90
2022-08-22T06:11:20.522Z,99.90
2022-08-22T06:14:40.739Z,99.90
2022-08-22T06:17:19.294Z,99.90
2022-08-22T06:19:49.740Z,99.90
2022-08-22T06:22:28.489Z,99.90
2022-08-22T06:25:12.851Z,99.90
2022-08-22T06:27:40.923Z,99.90
2022-08-22T06:30:09.520Z,99.90
2022-08-22T06:32:58.990Z,99.90
2022-08-22T06:35:56.134Z,99.90
2022-08-22T06:38:33.415Z,99.90
2022-08-22T06:41:06.820Z,99.90
2022-08-22T06:43:43.866Z,99.90
2022-08-22T06:46:15.106Z,99.90
2022-08-22T06:48:43.586Z,99.90
2022-08-22T06:51:12.539Z,99.90
2022-08-22T06:53:55.954Z,99.90
2022-08-22T06:56:34.255Z,99.90
2022-08-22T06:59:08.338Z,99.90
2022-08-22T07:01:56.310Z,99.90
2022-08-22T07:04:28.036Z,99.90
2022-08-22T07:06:58.300Z,99.90
2022-08-22T07:09:38.800Z,99.90
2022-08-22T07:12:18.424Z,99.90
2022-08-22T07:14:52.419Z,99.90
2022-08-22T07:17:25.590Z,99.90
2022-08-22T07:20:25.555Z,99.90
2022-08-22T07:23:01.739Z,99.90
2022-08-22T07:25:29.711Z,99.90
2022-08-22T07:28:16.103Z,99.90
2022-08-22T07:31:05.436Z,99.90
2022-08-22T07:33:44.335Z,99.90
2022-08-22T07:36:32.016Z,99.90
2022-08-22T07:39:37.346Z,99.90
2022-08-22T07:42:14.682Z,99.90
2022-08-22T07:45:06.970Z,99.90
2022-08-22T07:48:03.712Z,99.90
2022-08-22T07:50:36.767Z,99.90
2022-08-22T07:53:39.808Z,99.90
2022-08-22T07:56:16.822Z,99.90
2022-08-22T07:58:49.479Z,99.90
2022-08-22T08:01:21.409Z,99.90
2022-08-22T08:03:59.080Z,99.90
2022-08-22T08:06:28.501Z,99.90
2022-08-22T08:08:56.982Z,99.90
2022-08-22T08:11:29.554Z,99.90
2022-08-22T08:14:03.222Z,99.90
2022-08-22T08:16:41.534Z,99.90
2022-08-22T08:19:10.913Z,99.90
2022-08-22T08:21:51.143Z,99.90
2022-08-22T08:24:25.643Z,99.90
2022-08-22T08:27:18.130Z,99.90
2022-08-22T08:29:58.914Z,99.90
2022-08-22T08:32:34.000Z,99.90
2022-08-22T08:35:28.339Z,99.90
2022-08-22T08:38:23.534Z,99.90
2022-08-22T08:41:28.926Z,99.90
2022-08-22T08:43:59.154Z,99.90
2022-08-22T08:46:51.844Z,99.90
2022-08-22T08:49:35.723Z,99.90
2022-08-22T08:52:40.871Z,99.90
2022-08-22T08:55:34.459Z,99.90
2022-08-22T08:59:03.937Z,99.90
2022-08-22T09:02:01.894Z,99.90
2022-08-22T09:05:19.567Z,99.60
2022-08-22T09:08:29.168Z,99.30
2022-08-22T09:10:59.170Z,98.70
2022-08-22T09:13:54.198Z,97.00
2022-08-22T09:17:21.417Z,97.30
2022-08-22T09:20:30.403Z,98.00
2022-08-22T09:23:20.268Z,97.20
2022-08-22T09:26:48.545Z,94.90
2022-08-22T09:29:54.923Z,96.30
2022-08-22T09:32:44.172Z,94.10
2022-08-22T09:35:49.199Z,94.90
2022-08-22T09:38:38.531Z,95.10
2022-08-22T09:41:38.044Z,94.90
2022-08-22T09:44:39.774Z,93.80
2022-08-22T09:47:39.285Z,93.20
2022-08-22T09:50:47.787Z,93.40
2022-08-22T09:53:40.114Z,94.00
2022-08-22T09:56:33.901Z,92.40
2022-08-22T09:59:16.586Z,92.90
2022-08-22T10:02:02.770Z,92.00
2022-08-22T10:04:58.268Z,90.00
2022-08-22T10:07:58.990Z,89.40
2022-08-22T10:11:14.180Z,88.30
2022-08-22T10:14:01.728Z,88.10
2022-08-22T10:16:47.175Z,86.90
2022-08-22T10:19:40.825Z,85.40
2022-08-22T10:22:35.021Z,79.80
2022-08-22T10:25:28.469Z,84.70
2022-08-22T10:28:19.407Z,84.90
2022-08-22T10:31:14.007Z,81.90
2022-08-22T10:34:12.856Z,79.60
2022-08-22T10:37:05.801Z,80.60
2022-08-22T10:40:13.565Z,77.50
2022-08-22T10:42:54.530Z,77.80
2022-08-22T10:45:39.015Z,79.70
2022-08-22T10:48:09.732Z,81.60
2022-08-22T10:50:49.167Z,79.40
2022-08-22T10:53:35.056Z,80.10
2022-08-22T10:56:29.753Z,80.40
2022-08-22T10:59:14.694Z,80.80
2022-08-22T11:02:02.050Z,78.50
2022-08-22T11:04:59.779Z,80.80
2022-08-22T11:07:48.745Z,78.60
2022-08-22T11:10:59.163Z,79.90
2022-08-22T11:13:56.636Z,78.80
2022-08-22T11:17:31.086Z,81.70
2022-08-22T11:20:16.940Z,79.10
2022-08-22T11:23:02.334Z,79.40
2022-08-22T11:26:13.386Z,80.90
2022-08-22T11:29:15.708Z,81.10
2022-08-22T11:32:14.207Z,77.90
2022-08-22T11:34:58.487Z,77.20
2022-08-22T11:37:55.757Z,79.80
2022-08-22T11:40:58.398Z,75.40
2022-08-22T11:44:03.933Z,71.00
2022-08-22T11:46:35.983Z,69.70
2022-08-22T11:49:27.702Z,68.20
2022-08-22T11:52:01.596Z,66.20
2022-08-22T11:55:10.021Z,60.90
2022-08-22T11:58:19.651Z,63.60
2022-08-22T12:01:28.218Z,61.20
2022-08-22T12:04:32.213Z,60.70
2022-08-22T12:07:19.615Z,58.80
2022-08-22T12:09:52.194Z,57.80
2022-08-22T12:12:51.702Z,56.40
2022-08-22T12:15:49.006Z,53.70
2022-08-22T12:18:45.625Z,55.50
2022-08-22T12:21:53.056Z,53.30
2022-08-22T12:24:48.250Z,53.50
2022-08-22T12:27:48.093Z,51.50
2022-08-22T12:30:42.693Z,52.00
2022-08-22T12:34:41.626Z,51.90
2022-08-22T12:37:27.565Z,53.60
2022-08-22T12:40:43.618Z,51.50
2022-08-22T12:43:25.641Z,51.00
2022-08-22T12:46:15.958Z,48.80
2022-08-22T12:49:15.443Z,47.50
2022-08-22T12:52:18.897Z,48.70
2022-08-22T12:55:24.834Z,47.80
2022-08-22T12:58:07.586Z,48.90
2022-08-22T13:00:45.254Z,47.40
2022-08-22T13:03:47.891Z,46.90
2022-08-22T13:06:33.899Z,47.20
2022-08-22T13:09:17.942Z,46.50
2022-08-22T13:11:52.983Z,47.40
2022-08-22T13:14:26.128Z,46.10
2022-08-22T13:17:10.253Z,47.50
2022-08-22T13:20:09.155Z,46.40
2022-08-22T13:22:45.617Z,46.60
2022-08-22T13:25:56.732Z,44.70
2022-08-22T13:28:25.734Z,44.90
2022-08-22T13:30:55.537Z,44.30
2022-08-22T13:33:30.904Z,45.80
2022-08-22T13:36:08.351Z,47.40
2022-08-22T13:38:48.834Z,45.60
2022-08-22T13:41:27.630Z,45.50
2022-08-22T13:44:07.727Z,44.90
2022-08-22T13:46:44.478Z,47.20
2022-08-22T13:49:54.895Z,47.70
2022-08-22T13:52:55.593Z,46.40
2022-08-22T13:55:49.206Z,46.10
2022-08-22T13:58:59.429Z,48.10
2022-08-22T14:01:57.071Z,48.80
2022-08-22T14:04:33.300Z,48.00
2022-08-22T14:07:06.739Z,48.20
2022-08-22T14:09:58.791Z,46.90
2022-08-22T14:12:56.644Z,48.50
2022-08-22T14:15:45.807Z,46.00
2022-08-22T14:18:30.307Z,50.00
2022-08-22T14:21:40.626Z,50.20
2022-08-22T14:24:17.000Z,49.90
2022-08-22T14:27:05.204Z,52.40
2022-08-22T14:29:59.506Z,52.60
2022-08-22T14:32:29.758Z,53.40
2022-08-22T14:35:21.444Z,54.60
2022-08-22T14:38:14.608Z,55.00
2022-08-22T14:40:46.403Z,54.90
2022-08-22T14:43:32.234Z,54.40
2022-08-22T14:46:13.393Z,55.20
2022-08-22T14:49:13.741Z,53.20
2022-08-22T14:51:52.325Z,54.00
2022-08-22T14:54:29.157Z,53.60
2022-08-22T14:56:57.674Z,53.60
2022-08-22T14:59:50.363Z,53.10
2022-08-22T15:02:31.465Z,50.70
2022-08-22T15:05:05.633Z,50.80
2022-08-22T15:07:37.456Z,51.20
2022-08-22T15:10:31.747Z,51.30
2022-08-22T15:13:04.056Z,53.00
2022-08-22T15:15:53.467Z,53.50
2022-08-22T15:18:28.165Z,52.80
2022-08-22T15:21:11.304Z,54.20
2022-08-22T15:23:46.714Z,55.30
2022-08-22T15:26:33.111Z,56.70
2022-08-22T15:29:31.602Z,56.10
2022-08-22T15:32:03.954Z,55.50
2022-08-22T15:34:38.204Z,57.30
2022-08-22T15:37:29.297Z,56.70
2022-08-22T15:40:29.725Z,57.10
2022-08-22T15:42:58.338Z,57.20
2022-08-22T15:45:34.833Z,57.10
2022-08-22T15:48:08.564Z,56.90
2022-08-22T15:50:54.998Z,57.00
2022-08-22T15:53:45.686Z,55.80
2022-08-22T15:56:14.013Z,57.70
2022-08-22T15:58:50.428Z,59.00
2022-08-22T16:01:23.252Z,58.70
2022-08-22T16:04:07.216Z,58.70
2022-08-22T16:06:56.658Z,58.60
2022-08-22T16:09:39.367Z,58.80
2022-08-22T16:12:33.119Z,60.90
2022-08-22T16:15:03.119Z,61.10
2022-08-22T16:17:30.105Z,60.30
2022-08-22T16:20:19.558Z,60.50
2022-08-22T16:22:56.728Z,61.90
2022-08-22T16:25:48.025Z,63.00
2022-08-22T16:28:41.769Z,64.20
2022-08-22T16:31:42.812Z,65.30
2022-08-22T16:34:48.336Z,66.70
2022-08-22T16:37:17.928Z,68.20
2022-08-22T16:40:10.171Z,69.10
2022-08-22T16:42:50.666Z,70.00
2022-08-22T16:45:45.613Z,70.90
2022-08-22T16:48:34.700Z,72.50
2022-08-22T16:51:18.587Z,73.40
2022-08-22T16:54:10.166Z,73.70
2022-08-22T16:57:05.679Z,74.30
2022-08-22T16:59:43.984Z,75.60
2022-08-22T17:03:08.487Z,76.20
2022-08-22T17:05:51.739Z,77.20
2022-08-22T17:08:49.968Z,78.10
2022-08-22T17:11:37.256Z,78.20
2022-08-22T17:14:28.810Z,78.10
2022-08-22T17:17:23.411Z,77.90
2022-08-22T17:19:59.186Z,79.10
2022-08-22T17:22:54.372Z,78.10
2022-08-22T17:25:58.004Z,80.10
2022-08-22T17:29:07.355Z,76.70
2022-08-22T17:31:55.483Z,78.10
2022-08-22T17:34:36.478Z,79.10
2022-08-22T17:37:40.591Z,79.30
2022-08-22T17:40:21.094Z,78.80
2022-08-22T17:43:04.157Z,79.40
2022-08-22T17:46:05.694Z,79.20
2022-08-22T17:48:44.123Z,80.70
2022-08-22T17:51:28.660Z,81.60
2022-08-22T17:54:15.634Z,80.80
2022-08-22T17:57:06.597Z,83.40
2022-08-22T17:59:45.903Z,82.00
2022-08-22T18:02:23.219Z,82.70
2022-08-22T18:05:19.312Z,83.40
2022-08-22T18:08:37.613Z,83.80
2022-08-22T18:11:20.576Z,83.80
2022-08-22T18:14:09.050Z,84.30
2022-08-22T18:16:47.537Z,84.50
2022-08-22T18:19:42.663Z,84.90
2022-08-22T18:22:26.042Z,84.80
2022-08-22T18:25:19.213Z,86.70
2022-08-22T18:28:34.980Z,85.70
2022-08-22T18:31:08.591Z,85.40
2022-08-22T18:33:49.958Z,86.80
2022-08-22T18:36:31.494Z,86.40
2022-08-22T18:39:16.628Z,87.40
2022-08-22T18:41:59.608Z,87.70
2022-08-22T18:44:35.397Z,88.90
2022-08-22T18:47:19.571Z,88.70
2022-08-22T18:49:54.272Z,88.50
2022-08-22T18:52:27.176Z,87.90
2022-08-22T18:55:18.140Z,88.70
2022-08-22T18:58:10.139Z,88.10
2022-08-22T19:01:03.316Z,89.00
2022-08-22T19:03:44.551Z,89.70
2022-08-22T19:06:46.864Z,90.00
2022-08-22T19:09:40.851Z,90.40
2022-08-22T19:12:31.417Z,90.50
2022-08-22T19:15:30.883Z,90.40
2022-08-22T19:18:26.948Z,90.80
2022-08-22T19:21:52.379Z,90.90
2022-08-22T19:24:29.756Z,90.50
2022-08-22T19:27:21.124Z,90.90
2022-08-22T19:29:48.203Z,91.10
2022-08-22T19:32:47.088Z,91.10
2022-08-22T19:35:26.271Z,90.70
2022-08-22T19:38:04.242Z,91.00
2022-08-22T19:40:46.204Z,90.70
2022-08-22T19:43:28.976Z,91.30
2022-08-22T19:45:58.528Z,91.20
2022-08-22T19:48:43.637Z,91.50
2022-08-22T19:51:21.908Z,90.80
2022-08-22T19:54:22.014Z,91.40
2022-08-22T19:57:07.421Z,91.50
2022-08-22T20:00:01.017Z,91.20
2022-08-22T20:02:57.489Z,91.20
2022-08-22T20:05:57.122Z,91.70
2022-08-22T20:09:00.986Z,91.90
2022-08-22T20:12:15.252Z,91.90
2022-08-22T20:14:45.821Z,91.50
2022-08-22T20:17:25.100Z,91.90
2022-08-22T20:22:56.757Z,91.60
2022-08-22T20:25:51.979Z,92.20
2022-08-22T20:28:49.924Z,92.30
2022-08-22T20:31:27.147Z,92.30
2022-08-22T20:34:08.899Z,92.20
2022-08-22T20:36:36.459Z,92.10
2022-08-22T20:39:16.638Z,92.20
2022-08-22T20:41:52.739Z,91.70
2022-08-22T20:44:43.471Z,91.70
2022-08-22T20:47:22.410Z,91.70
2022-08-22T20:50:04.813Z,91.20
2022-08-22T20:52:37.214Z,91.70
2022-08-22T20:55:28.608Z,91.70
2022-08-22T20:58:06.909Z,91.60
2022-08-22T21:00:42.789Z,91.40
2022-08-22T21:03:25.423Z,92.10
2022-08-22T21:05:52.575Z,91.90
2022-08-22T21:08:23.008Z,91.70
2022-08-22T21:11:21.820Z,91.60
2022-08-22T21:13:50.112Z,92.20
2022-08-22T21:16:31.695Z,92.30
2022-08-22T21:19:03.417Z,92.30
2022-08-22T21:21:34.511Z,91.70
2022-08-22T21:24:04.862Z,92.20
2022-08-22T21:26:59.066Z,92.50
2022-08-22T21:29:32.745Z,92.00
2022-08-22T21:32:11.770Z,92.10
2022-08-22T21:34:45.870Z,92.70
2022-08-22T21:37:23.306Z,92.80
2022-08-22T21:39:58.740Z,92.20
2022-08-22T21:42:39.804Z,92.50
2022-08-22T21:45:12.563Z,92.00
2022-08-22T21:47:42.442Z,92.00
2022-08-22T21:50:38.308Z,91.80
2022-08-22T21:53:14.074Z,91.30
2022-08-22T21:55:44.425Z,92.00
2022-08-22T21:58:36.352Z,91.60
2022-08-22T22:01:30.441Z,92.00
2022-08-22T22:03:59.821Z,92.50
2022-08-22T22:06:27.931Z,92.00
2022-08-22T22:08:55.397Z,92.70
2022-08-22T22:11:22.651Z,92.70
2022-08-22T22:13:49.853Z,92.90
2022-08-22T22:16:26.143Z,92.80
2022-08-22T22:18:53.787Z,93.00
2022-08-22T22:21:20.962Z,92.50
2022-08-22T22:23:49.435Z,92.50
2022-08-22T22:26:17.014Z,92.40
2022-08-22T22:28:48.575Z,92.60
2022-08-22T22:31:18.373Z,93.00
2022-08-22T22:33:46.259Z,93.00
2022-08-22T22:36:22.770Z,92.60
2022-08-22T22:38:51.562Z,93.30
2022-08-22T22:41:21.259Z,93.10
2022-08-22T22:43:48.335Z,93.10
2022-08-22T22:46:15.418Z,93.40
2022-08-22T22:48:42.488Z,92.80
2022-08-22T22:51:12.306Z,93.30
2022-08-22T22:53:43.034Z,93.60
2022-08-22T22:56:25.016Z,93.30
2022-08-22T22:58:59.261Z,93.60
2022-08-22T23:02:04.037Z,93.40
2022-08-22T23:04:34.301Z,93.10
2022-08-22T23:07:02.003Z,93.60
2022-08-22T23:09:38.057Z,93.50
2022-08-22T23:12:12.858Z,93.00
2022-08-22T23:14:40.230Z,93.30
2022-08-22T23:17:07.300Z,93.70
2022-08-22T23:19:34.727Z,93.70
2022-08-22T23:22:02.035Z,94.10
2022-08-22T23:24:31.243Z,94.50
2022-08-22T23:26:59.191Z,94.30
2022-08-22T23:29:27.311Z,94.60
2022-08-22T23:32:01.889Z,93.90
2022-08-22T23:34:33.892Z,93.90
2022-08-22T23:37:05.880Z,93.90
2022-08-22T23:39:35.410Z,93.90
2022-08-22T23:42:03.053Z,94.10
2022-08-22T23:44:34.210Z,94.50
2022-08-22T23:47:02.283Z,94.60
2022-08-22T23:49:31.031Z,95.00
2022-08-22T23:51:59.302Z,95.10
2022-08-22T23:54:27.313Z,95.70
2022-08-22T23:56:58.062Z,95.90
2022-08-22T23:59:30.690Z,96.50
